createdAt,value
2022-08-12T00:01:12.634Z,23.05
2022-08-12T00:03:58.660Z,23.12
2022-08-12T00:06:46.111Z,23.06
2022-08-12T00:09:32.062Z,22.93
2022-08-12T00:12:17.511Z,23.01
2022-08-12T00:15:03.635Z,23.03
2022-08-12T00:17:49.339Z,23.05
2022-08-12T00:20:35.273Z,23.19
2022-08-12T00:23:21.594Z,23.29
2022-08-12T00:26:23.456Z,23.35
2022-08-12T00:29:13.929Z,23.35
2022-08-12T00:32:01.630Z,23.44
2022-08-12T00:34:51.959Z,23.54
2022-08-12T00:37:40.575Z,23.53
2022-08-12T00:40:29.926Z,23.53
2022-08-12T00:42:58.223Z,23.45
2022-08-12T00:45:25.936Z,23.22
2022-08-12T00:47:54.421Z,23.18
2022-08-12T00:50:23.519Z,23.22
2022-08-12T00:52:53.113Z,23.20
2022-08-12T00:55:20.722Z,23.17
2022-08-12T00:57:50.296Z,23.15
2022-08-12T01:00:21.872Z,23.07
2022-08-12T01:02:52.802Z,23.10
2022-08-12T01:05:41.425Z,22.90
2022-08-12T01:08:27.913Z,22.92
2022-08-12T01:11:15.349Z,22.87
2022-08-12T01:13:47.905Z,22.83
2022-08-12T01:16:22.966Z,22.87
2022-08-12T01:18:53.491Z,22.99
2022-08-12T01:21:57.086Z,22.99
2022-08-12T01:24:54.770Z,22.93
2022-08-12T01:27:53.319Z,22.75
2022-08-12T01:30:21.575Z,22.51
2022-08-12T01:32:50.153Z,22.32
2022-08-12T01:35:17.884Z,22.06
2022-08-12T01:37:59.041Z,21.89
2022-08-12T01:40:36.150Z,21.81
2022-08-12T01:43:10.375Z,21.80
2022-08-12T01:45:46.499Z,21.79
2022-08-12T01:48:29.735Z,21.80
2022-08-12T01:51:06.077Z,21.77
2022-08-12T01:53:57.881Z,21.66
2022-08-12T01:56:30.987Z,21.66
2022-08-12T01:59:21.654Z,21.56
2022-08-12T02:01:53.869Z,21.53
2022-08-12T02:05:21.062Z,21.44
2022-08-12T02:08:36.204Z,21.54
2022-08-12T02:11:23.403Z,21.61
2022-08-12T02:14:11.249Z,21.68
2022-08-12T02:16:46.989Z,21.81
2022-08-12T02:19:25.842Z,21.80
2022-08-12T02:22:03.038Z,21.78
2022-08-12T02:24:34.557Z,21.78
2022-08-12T02:27:03.004Z,21.68
2022-08-12T02:29:30.446Z,21.75
2022-08-12T02:31:59.406Z,21.68
2022-08-12T02:34:28.693Z,21.56
2022-08-12T02:36:57.607Z,21.61
2022-08-12T02:39:34.131Z,21.71
2022-08-12T02:42:04.516Z,21.64
2022-08-12T02:44:40.584Z,21.69
2022-08-12T02:47:58.423Z,21.76
2022-08-12T02:49:58.925Z,21.79
2022-08-12T02:52:27.550Z,21.81
2022-08-12T02:55:02.156Z,21.82
2022-08-12T02:57:32.372Z,21.83
2022-08-12T03:00:04.334Z,21.83
2022-08-12T03:02:33.806Z,21.77
2022-08-12T03:05:03.414Z,21.77
2022-08-12T03:07:59.094Z,21.74
2022-08-12T03:10:36.588Z,21.85
2022-08-12T03:13:07.365Z,21.86
2022-08-12T03:15:35.977Z,21.85
2022-08-12T03:18:26.515Z,21.91
2022-08-12T03:20:59.099Z,21.93
2022-08-12T03:23:29.874Z,22.08
2022-08-12T03:25:59.089Z,22.06
2022-08-12T03:28:45.148Z,22.13
2022-08-12T03:31:12.214Z,22.06
2022-08-12T03:34:00.962Z,21.94
2022-08-12T03:36:34.055Z,21.88
2022-08-12T03:39:19.064Z,21.92
2022-08-12T03:41:55.325Z,21.89
2022-08-12T03:44:51.159Z,21.85
2022-08-12T03:48:18.741Z,21.78
2022-08-12T03:51:06.356Z,21.57
2022-08-12T03:53:53.383Z,21.50
2022-08-12T03:56:39.533Z,21.50
2022-08-12T03:59:26.143Z,21.31
2022-08-12T04:02:00.134Z,21.05
2022-08-12T04:04:35.371Z,21.05
2022-08-12T04:07:08.536Z,20.88
2022-08-12T04:09:39.063Z,20.91
2022-08-12T04:12:26.141Z,20.83
2022-08-12T04:14:57.208Z,20.70
2022-08-12T04:17:28.509Z,20.69
2022-08-12T04:19:57.572Z,20.56
2022-08-12T04:22:29.598Z,20.45
2022-08-12T04:25:01.490Z,20.39
2022-08-12T04:27:32.232Z,20.06
2022-08-12T04:30:29.231Z,19.77
2022-08-12T04:32:50.791Z,19.83
2022-08-12T04:35:18.605Z,19.94
2022-08-12T04:37:58.798Z,20.00
2022-08-12T04:40:31.255Z,20.03
2022-08-12T04:43:01.519Z,20.08
2022-08-12T04:45:30.605Z,20.10
2022-08-12T04:47:57.657Z,20.09
2022-08-12T04:50:34.112Z,20.06
2022-08-12T04:53:02.826Z,20.10
2022-08-12T04:55:29.974Z,20.16
2022-08-12T04:57:57.165Z,20.16
2022-08-12T05:00:24.243Z,20.23
2022-08-12T05:02:51.397Z,20.23
2022-08-12T05:05:20.863Z,20.28
2022-08-12T05:07:54.083Z,20.33
2022-08-12T05:10:33.572Z,20.38
2022-08-12T05:13:07.643Z,20.42
2022-08-12T05:16:04.009Z,20.40
2022-08-12T05:18:25.567Z,20.34
2022-08-12T05:20:58.962Z,20.26
2022-08-12T05:23:26.138Z,20.39
2022-08-12T05:25:57.300Z,20.50
2022-08-12T05:28:27.351Z,20.49
2022-08-12T05:30:56.471Z,20.44
2022-08-12T05:33:35.926Z,20.42
2022-08-12T05:36:07.727Z,20.43
2022-08-12T05:38:53.740Z,20.43
2022-08-12T05:41:21.189Z,20.31
2022-08-12T05:43:56.173Z,20.40
2022-08-12T05:46:24.772Z,20.51
2022-08-12T05:48:54.778Z,20.44
2022-08-12T05:51:39.829Z,20.33
2022-08-12T05:54:10.642Z,20.34
2022-08-12T05:56:37.797Z,20.53
2022-08-12T05:59:11.428Z,20.56
2022-08-12T06:02:12.276Z,20.68
2022-08-12T06:04:26.710Z,20.74
2022-08-12T06:06:53.852Z,20.77
2022-08-12T06:09:22.849Z,20.63
2022-08-12T06:12:04.723Z,20.48
2022-08-12T06:14:38.753Z,20.17
2022-08-12T06:17:09.189Z,20.10
2022-08-12T06:20:26.731Z,19.95
2022-08-12T06:22:24.589Z,19.85
2022-08-12T06:24:53.716Z,20.22
2022-08-12T06:27:21.880Z,20.50
2022-08-12T06:30:08.024Z,20.65
2022-08-12T06:32:47.475Z,20.99
2022-08-12T06:35:27.205Z,21.11
2022-08-12T06:38:25.350Z,21.16
2022-08-12T06:41:19.623Z,21.44
2022-08-12T06:44:04.945Z,21.72
2022-08-12T06:46:37.195Z,22.06
2022-08-12T06:49:04.351Z,22.04
2022-08-12T06:51:32.531Z,22.33
2022-08-12T06:54:01.051Z,22.58
2022-08-12T06:56:59.706Z,22.91
2022-08-12T06:59:16.625Z,23.16
2022-08-12T07:01:50.891Z,23.28
2022-08-12T07:04:37.410Z,23.03
2022-08-12T07:07:08.799Z,23.27
2022-08-12T07:10:04.628Z,23.65
2022-08-12T07:12:27.778Z,23.58
2022-08-12T07:14:59.821Z,23.56
2022-08-12T07:17:37.995Z,23.34
2022-08-12T07:20:09.945Z,23.18
2022-08-12T07:22:37.834Z,23.42
2022-08-12T07:25:23.642Z,23.75
2022-08-12T07:27:58.511Z,24.00
2022-08-12T07:30:25.725Z,24.45
2022-08-12T07:32:52.786Z,24.99
2022-08-12T07:35:20.663Z,25.34
2022-08-12T07:37:50.684Z,25.12
2022-08-12T07:40:18.923Z,25.15
2022-08-12T07:42:46.433Z,24.88
2022-08-12T07:45:14.004Z,25.27
2022-08-12T07:47:44.955Z,25.24
2022-08-12T07:50:16.925Z,25.30
2022-08-12T07:52:48.486Z,24.98
2022-08-12T07:55:16.913Z,25.10
2022-08-12T07:57:53.516Z,24.65
2022-08-12T08:00:21.168Z,24.76
2022-08-12T08:02:49.481Z,24.81
2022-08-12T08:05:17.623Z,24.76
2022-08-12T08:07:44.739Z,24.52
2022-08-12T08:10:14.005Z,24.71
2022-08-12T08:13:04.512Z,24.68
2022-08-12T08:18:26.719Z,24.12
2022-08-12T08:20:55.465Z,24.40
2022-08-12T08:23:22.469Z,24.59
2022-08-12T13:47:58.707Z,27.18
2022-08-12T13:50:36.625Z,27.50
2022-08-12T13:53:23.986Z,27.45
2022-08-12T13:55:59.360Z,27.78
2022-08-12T13:58:35.000Z,28.06
2022-08-12T14:01:08.884Z,28.12
2022-08-12T14:03:51.586Z,28.21
2022-08-12T14:06:25.843Z,28.22
2022-08-12T14:08:55.466Z,28.69
2022-08-12T14:11:27.953Z,29.12
2022-08-12T14:14:11.667Z,29.16
2022-08-12T14:16:52.187Z,29.09
2022-08-12T14:19:26.552Z,29.07
2022-08-12T14:22:04.802Z,29.13
2022-08-12T14:24:41.060Z,28.96
2022-08-12T14:27:13.611Z,29.24
2022-08-12T14:30:04.105Z,29.21
2022-08-12T14:32:37.414Z,29.39
2022-08-12T14:35:12.334Z,29.23
2022-08-12T14:37:57.165Z,29.28
2022-08-12T14:40:32.137Z,29.07
2022-08-12T14:43:00.491Z,29.18
2022-08-12T14:45:44.685Z,29.46
2022-08-12T14:48:24.336Z,29.75
2022-08-12T14:51:09.678Z,29.40
2022-08-12T14:55:28.342Z,29.30
2022-08-12T14:59:56.710Z,28.78
2022-08-12T15:02:29.332Z,28.43
2022-08-12T15:05:08.249Z,28.53
2022-08-12T15:07:49.952Z,28.75
2022-08-12T15:10:25.328Z,28.72
2022-08-12T15:13:07.567Z,28.62
2022-08-12T15:15:43.693Z,28.43
2022-08-12T15:18:21.467Z,28.41
2022-08-12T15:20:57.848Z,28.55
2022-08-12T15:23:54.818Z,28.72
2022-08-12T15:26:35.748Z,28.78
2022-08-12T15:29:10.584Z,28.97
2022-08-12T15:32:00.182Z,29.07
2022-08-12T15:34:31.496Z,28.54
2022-08-12T15:37:09.225Z,28.22
2022-08-12T15:39:39.227Z,27.53
2022-08-12T15:42:25.445Z,27.56
2022-08-12T15:44:52.727Z,27.24
2022-08-12T15:47:26.628Z,26.87
2022-08-12T15:50:00.548Z,26.52
2022-08-12T15:52:31.289Z,26.62
2022-08-12T15:55:06.618Z,26.37
2022-08-12T15:57:53.897Z,26.27
2022-08-12T16:00:54.088Z,26.40
2022-08-12T16:03:45.462Z,26.49
2022-08-12T16:06:35.613Z,26.43
2022-08-12T16:09:16.715Z,26.13
2022-08-12T16:11:50.529Z,26.13
2022-08-12T16:14:20.436Z,26.11
2022-08-12T16:16:54.327Z,26.05
2022-08-12T16:20:03.541Z,25.73
2022-08-12T16:22:15.931Z,25.41
2022-08-12T16:24:45.107Z,25.41
2022-08-12T16:27:15.316Z,25.35
2022-08-12T16:29:52.332Z,25.37
2022-08-12T16:32:24.509Z,25.36
2022-08-12T16:35:08.237Z,25.31
2022-08-12T16:38:25.474Z,25.29
2022-08-12T16:40:38.361Z,25.12
2022-08-12T16:43:30.671Z,25.07
2022-08-12T16:46:32.640Z,24.94
2022-08-12T16:49:09.208Z,24.90
2022-08-12T16:51:47.738Z,24.64
2022-08-12T16:54:19.221Z,24.47
2022-08-12T16:56:57.597Z,24.55
2022-08-12T16:59:53.646Z,24.41
2022-08-12T17:02:33.819Z,24.46
2022-08-12T17:05:05.374Z,24.60
2022-08-12T17:07:43.562Z,24.72
2022-08-12T17:10:18.493Z,24.82
2022-08-12T17:13:13.735Z,24.81
2022-08-12T17:15:57.246Z,24.85
2022-08-12T17:18:42.939Z,24.87
2022-08-12T17:21:41.091Z,24.80
2022-08-12T17:24:30.451Z,24.83
2022-08-12T17:27:09.579Z,24.80
2022-08-12T17:30:02.900Z,24.62
2022-08-12T17:32:46.317Z,24.58
2022-08-12T17:35:37.263Z,24.48
2022-08-12T17:38:16.460Z,24.34
2022-08-12T17:40:52.607Z,24.27
2022-08-12T17:43:57.237Z,24.09
2022-08-12T17:46:23.939Z,24.09
2022-08-12T17:48:59.925Z,23.99
2022-08-12T17:51:31.605Z,23.98
2022-08-12T17:54:11.063Z,23.89
2022-08-12T17:56:43.296Z,23.86
2022-08-12T17:59:14.417Z,23.82
2022-08-12T18:02:11.454Z,23.80
2022-08-12T18:05:04.842Z,23.77
2022-08-12T18:07:39.370Z,23.70
2022-08-12T18:10:11.247Z,23.70
2022-08-12T18:12:47.908Z,23.56
2022-08-12T18:15:47.730Z,23.53
2022-08-12T18:18:16.787Z,23.52
2022-08-12T18:20:50.332Z,23.39
2022-08-12T18:23:24.210Z,23.39
2022-08-12T18:26:17.767Z,23.30
2022-08-12T18:28:48.886Z,23.24
2022-08-12T18:31:23.868Z,23.11
2022-08-12T18:34:03.113Z,23.02
2022-08-12T18:36:35.247Z,23.00
2022-08-12T18:39:04.976Z,22.96
2022-08-12T18:41:40.014Z,22.88
2022-08-12T18:44:33.931Z,22.87
2022-08-12T18:47:09.254Z,22.81
2022-08-12T18:49:41.581Z,22.72
2022-08-12T18:52:11.645Z,22.65
2022-08-12T18:54:49.344Z,22.63
2022-08-12T18:58:06.891Z,22.58
2022-08-12T19:00:22.966Z,22.48
2022-08-12T19:02:53.828Z,22.41
2022-08-12T19:05:52.926Z,22.34
2022-08-12T19:08:23.141Z,22.28
2022-08-12T19:10:55.196Z,22.22
2022-08-12T19:13:44.789Z,22.28
2022-08-12T19:16:24.360Z,22.29
2022-08-12T19:19:02.922Z,22.29
2022-08-12T19:21:38.814Z,22.31
2022-08-12T19:24:31.949Z,22.31
2022-08-12T19:27:12.132Z,22.25
2022-08-12T19:29:44.606Z,22.20
2022-08-12T19:32:44.213Z,22.25
2022-08-12T19:38:06.950Z,22.17
2022-08-12T19:40:40.543Z,22.19
2022-08-12T19:43:22.882Z,21.99
2022-08-12T19:45:57.267Z,21.70
2022-08-12T19:48:32.571Z,21.58
2022-08-12T19:51:09.378Z,21.62
2022-08-12T19:53:57.852Z,21.65
2022-08-12T19:56:31.263Z,21.70
2022-08-12T19:59:24.713Z,21.68
2022-08-12T20:02:15.562Z,21.63
2022-08-12T20:06:03.761Z,21.57
2022-08-12T20:07:59.312Z,21.56
2022-08-12T20:10:36.267Z,21.61
2022-08-12T20:13:18.646Z,21.58
2022-08-12T20:15:59.776Z,21.53
2022-08-12T20:18:53.451Z,21.43
2022-08-12T20:21:40.326Z,21.42
2022-08-12T20:24:19.124Z,21.44
2022-08-12T20:26:49.929Z,21.35
2022-08-12T20:29:19.439Z,21.35
2022-08-12T20:31:51.904Z,21.30
2022-08-12T20:34:20.470Z,21.28
2022-08-12T20:36:57.067Z,21.24
2022-08-12T20:39:52.600Z,21.20
2022-08-12T20:42:20.812Z,21.12
2022-08-12T20:44:51.449Z,21.01
2022-08-12T20:47:21.694Z,21.03
2022-08-12T20:49:54.903Z,21.04
2022-08-12T20:52:35.198Z,20.95
2022-08-12T20:55:15.873Z,20.88
2022-08-12T20:58:01.755Z,20.79
2022-08-12T21:00:33.443Z,20.83
2022-08-12T21:03:52.655Z,20.77
2022-08-12T21:06:44.716Z,20.44
2022-08-12T21:09:22.131Z,20.31
2022-08-12T21:11:53.782Z,20.35
2022-08-12T21:14:39.708Z,20.37
2022-08-12T21:17:15.942Z,20.33
2022-08-12T21:19:53.047Z,20.29
2022-08-12T21:22:31.562Z,20.23
2022-08-12T21:25:14.525Z,20.15
2022-08-12T21:27:59.490Z,20.15
2022-08-12T21:30:37.187Z,20.04
2022-08-12T21:33:10.629Z,19.97
2022-08-12T21:35:51.201Z,19.93
2022-08-12T21:38:19.747Z,19.87
2022-08-12T21:40:56.530Z,19.74
2022-08-12T21:43:27.042Z,19.57
2022-08-12T21:46:33.688Z,19.53
2022-08-12T21:49:03.966Z,19.37
2022-08-12T21:51:49.330Z,19.31
2022-08-12T21:54:22.890Z,19.23
2022-08-12T21:56:53.831Z,19.18
2022-08-12T21:59:23.364Z,19.10
2022-08-12T22:01:54.104Z,19.03
2022-08-12T22:04:40.771Z,19.17
2022-08-12T22:07:26.642Z,19.21
2022-08-12T22:09:59.480Z,19.18
2022-08-12T22:12:38.192Z,19.14
2022-08-12T22:15:21.771Z,19.15
2022-08-12T22:17:55.475Z,19.11
2022-08-12T22:20:29.812Z,19.04
2022-08-12T22:23:02.254Z,19.01
2022-08-12T22:25:32.404Z,18.98
2022-08-12T22:28:24.653Z,18.87
2022-08-12T22:31:11.745Z,18.84
2022-08-12T22:33:54.318Z,18.83
2022-08-12T22:36:37.182Z,18.73
2022-08-12T22:39:11.823Z,18.69
2022-08-12T22:42:04.093Z,18.58
2022-08-12T22:44:55.531Z,18.54
2022-08-12T22:47:54.956Z,18.44
2022-08-12T22:50:35.892Z,18.41
2022-08-12T22:53:19.361Z,18.43
2022-08-12T22:56:05.747Z,18.43
2022-08-12T22:58:40.752Z,18.40
2022-08-12T23:01:52.597Z,18.39
2022-08-12T23:04:08.080Z,18.36
2022-08-12T23:06:39.428Z,18.34
2022-08-12T23:09:07.361Z,18.14
2022-08-12T23:11:40.899Z,17.91
2022-08-12T23:14:13.281Z,18.02
2022-08-12T23:16:44.999Z,18.02
2022-08-12T23:19:23.133Z,18.02
2022-08-12T23:22:03.642Z,17.96
2022-08-12T23:24:53.777Z,17.96
2022-08-12T23:27:55.696Z,17.94
2022-08-12T23:30:39.145Z,17.91
2022-08-12T23:33:19.758Z,17.90
2022-08-12T23:36:02.870Z,17.81
2022-08-12T23:38:35.548Z,17.73
2022-08-12T23:41:06.799Z,17.65
2022-08-12T23:43:48.721Z,17.57
2022-08-12T23:46:26.679Z,17.34
2022-08-12T23:49:01.065Z,17.37
2022-08-12T23:51:32.192Z,17.40
2022-08-12T23:54:32.878Z,17.37
2022-08-12T23:56:59.610Z,17.37
2022-08-12T23:59:43.531Z,17.36
